sensor_id;sensor_type;location;lat;lon;timestamp;P1;durP1;ratioP1;P2;durP2;ratioP2
23496;SDS011;11925;48.122;11.560;2022-08-03T00:00:34;3.35;;;1.63;;
23496;SDS011;11925;48.122;11.560;2022-08-03T00:03:02;2.80;;;1.58;;
23496;SDS011;11925;48.122;11.560;2022-08-03T00:05:32;5.60;;;1.83;;
23496;SDS011;11925;48.122;11.560;2022-08-03T00:08:01;4.22;;;2.08;;
23496;SDS011;11925;48.122;11.560;2022-08-03T00:10:32;2.85;;;1.60;;
23496;SDS011;11925;48.122;11.560;2022-08-03T00:13:00;2.55;;;1.63;;
23496;SDS011;11925;48.122;11.560;2022-08-03T00:15:29;2.88;;;1.60;;
23496;SDS011;11925;48.122;11.560;2022-08-03T00:17:58;3.50;;;2.00;;
23496;SDS011;11925;48.122;11.560;2022-08-03T00:20:26;2.35;;;1.48;;
23496;SDS011;11925;48.122;11.560;2022-08-03T00:22:56;2.70;;;1.60;;
23496;SDS011;11925;48.122;11.560;2022-08-03T00:25:25;3.03;;;1.88;;
23496;SDS011;11925;48.122;11.560;2022-08-03T00:27:54;4.80;;;1.80;;
23496;SDS011;11925;48.122;11.560;2022-08-03T00:30:23;11.85;;;2.00;;
23496;SDS011;11925;48.122;11.560;2022-08-03T00:32:56;3.58;;;1.60;;
23496;SDS011;11925;48.122;11.560;2022-08-03T00:35:25;3.13;;;1.50;;
23496;SDS011;11925;48.122;11.560;2022-08-03T00:38:04;4.38;;;1.50;;
23496;SDS011;11925;48.122;11.560;2022-08-03T00:40:33;3.35;;;1.30;;
23496;SDS011;11925;48.122;11.560;2022-08-03T00:43:03;3.55;;;1.58;;
23496;SDS011;11925;48.122;11.560;2022-08-03T00:45:32;3.35;;;1.60;;
23496;SDS011;11925;48.122;11.560;2022-08-03T00:48:02;2.65;;;1.60;;
23496;SDS011;11925;48.122;11.560;2022-08-03T00:50:35;2.53;;;1.50;;
23496;SDS011;11925;48.122;11.560;2022-08-03T00:53:08;1.88;;;1.40;;
23496;SDS011;11925;48.122;11.560;2022-08-03T00:55:38;3.53;;;1.70;;
23496;SDS011;11925;48.122;11.560;2022-08-03T00:58:07;2.40;;;1.52;;
23496;SDS011;11925;48.122;11.560;2022-08-03T01:00:37;2.55;;;1.70;;
23496;SDS011;11925;48.122;11.560;2022-08-03T01:03:07;2.88;;;1.55;;
23496;SDS011;11925;48.122;11.560;2022-08-03T01:05:37;2.95;;;1.45;;
23496;SDS011;11925;48.122;11.560;2022-08-03T01:08:10;2.97;;;1.50;;
23496;SDS011;11925;48.122;11.560;2022-08-03T01:10:43;4.57;;;1.65;;
23496;SDS011;11925;48.122;11.560;2022-08-03T01:13:19;2.22;;;1.30;;
23496;SDS011;11925;48.122;11.560;2022-08-03T01:16:11;3.35;;;1.85;;
23496;SDS011;11925;48.122;11.560;2022-08-03T01:18:44;4.35;;;1.77;;
23496;SDS011;11925;48.122;11.560;2022-08-03T01:21:13;2.53;;;1.52;;
23496;SDS011;11925;48.122;11.560;2022-08-03T01:23:58;2.60;;;1.58;;
23496;SDS011;11925;48.122;11.560;2022-08-03T01:26:37;3.20;;;1.83;;
23496;SDS011;11925;48.122;11.560;2022-08-03T01:29:12;3.25;;;1.35;;
23496;SDS011;11925;48.122;11.560;2022-08-03T01:31:46;2.50;;;1.40;;
23496;SDS011;11925;48.122;11.560;2022-08-03T01:34:40;1.77;;;1.42;;
23496;SDS011;11925;48.122;11.560;2022-08-03T01:37:09;2.38;;;1.40;;
23496;SDS011;11925;48.122;11.560;2022-08-03T01:39:38;2.33;;;1.50;;
23496;SDS011;11925;48.122;11.560;2022-08-03T01:42:08;2.55;;;1.42;;
23496;SDS011;11925;48.122;11.560;2022-08-03T01:44:39;3.08;;;1.75;;
23496;SDS011;11925;48.122;11.560;2022-08-03T01:47:09;3.15;;;1.40;;
23496;SDS011;11925;48.122;11.560;2022-08-03T01:49:39;4.03;;;1.48;;
23496;SDS011;11925;48.122;11.560;2022-08-03T01:52:10;1.55;;;1.30;;
23496;SDS011;11925;48.122;11.560;2022-08-03T01:54:42;3.25;;;1.50;;
23496;SDS011;11925;48.122;11.560;2022-08-03T01:57:12;4.13;;;1.58;;
23496;SDS011;11925;48.122;11.560;2022-08-03T01:59:42;2.15;;;1.40;;
23496;SDS011;11925;48.122;11.560;2022-08-03T02:02:13;2.10;;;1.42;;
23496;SDS011;11925;48.122;11.560;2022-08-03T02:05:00;2.17;;;1.45;;
23496;SDS011;11925;48.122;11.560;2022-08-03T02:07:29;2.95;;;1.75;;
23496;SDS011;11925;48.122;11.560;2022-08-03T02:09:58;2.20;;;1.30;;
23496;SDS011;11925;48.122;11.560;2022-08-03T02:12:27;3.72;;;1.50;;
23496;SDS011;11925;48.122;11.560;2022-08-03T02:14:57;2.30;;;1.58;;
23496;SDS011;11925;48.122;11.560;2022-08-03T02:17:28;2.67;;;1.38;;
23496;SDS011;11925;48.122;11.560;2022-08-03T02:20:06;3.25;;;1.42;;
23496;SDS011;11925;48.122;11.560;2022-08-03T02:22:36;2.85;;;1.50;;
23496;SDS011;11925;48.122;11.560;2022-08-03T02:25:06;2.58;;;1.33;;
23496;SDS011;11925;48.122;11.560;2022-08-03T02:27:36;2.95;;;1.63;;
23496;SDS011;11925;48.122;11.560;2022-08-03T02:30:09;2.15;;;1.55;;
23496;SDS011;11925;48.122;11.560;2022-08-03T02:32:41;2.70;;;1.85;;
23496;SDS011;11925;48.122;11.560;2022-08-03T02:37:41;2.85;;;1.65;;
23496;SDS011;11925;48.122;11.560;2022-08-03T02:40:14;2.25;;;1.35;;
23496;SDS011;11925;48.122;11.560;2022-08-03T02:42:44;2.22;;;1.50;;
23496;SDS011;11925;48.122;11.560;2022-08-03T02:45:14;2.38;;;1.42;;
23496;SDS011;11925;48.122;11.560;2022-08-03T02:47:45;2.88;;;1.45;;
23496;SDS011;11925;48.122;11.560;2022-08-03T02:50:20;2.10;;;1.40;;
23496;SDS011;11925;48.122;11.560;2022-08-03T02:52:49;2.70;;;1.88;;
23496;SDS011;11925;48.122;11.560;2022-08-03T02:55:18;1.92;;;1.40;;
23496;SDS011;11925;48.122;11.560;2022-08-03T02:57:47;2.45;;;1.73;;
23496;SDS011;11925;48.122;11.560;2022-08-03T03:00:17;2.40;;;1.40;;
23496;SDS011;11925;48.122;11.560;2022-08-03T03:02:56;3.53;;;1.52;;
23496;SDS011;11925;48.122;11.560;2022-08-03T03:05:26;3.15;;;1.63;;
23496;SDS011;11925;48.122;11.560;2022-08-03T03:08:16;1.85;;;1.40;;
23496;SDS011;11925;48.122;11.560;2022-08-03T03:10:54;1.60;;;1.30;;
23496;SDS011;11925;48.122;11.560;2022-08-03T03:13:22;2.00;;;1.40;;
23496;SDS011;11925;48.122;11.560;2022-08-03T03:15:52;2.35;;;1.40;;
23496;SDS011;11925;48.122;11.560;2022-08-03T03:18:23;2.25;;;1.25;;
23496;SDS011;11925;48.122;11.560;2022-08-03T03:20:52;2.35;;;1.50;;
23496;SDS011;11925;48.122;11.560;2022-08-03T03:23:21;2.03;;;1.30;;
23496;SDS011;11925;48.122;11.560;2022-08-03T03:25:50;2.60;;;1.30;;
23496;SDS011;11925;48.122;11.560;2022-08-03T03:28:21;1.60;;;1.20;;
23496;SDS011;11925;48.122;11.560;2022-08-03T03:30:50;1.60;;;1.38;;
23496;SDS011;11925;48.122;11.560;2022-08-03T03:33:19;1.70;;;1.30;;
23496;SDS011;11925;48.122;11.560;2022-08-03T03:35:49;3.78;;;1.48;;
23496;SDS011;11925;48.122;11.560;2022-08-03T03:38:18;1.55;;;1.17;;
23496;SDS011;11925;48.122;11.560;2022-08-03T03:40:47;2.97;;;1.60;;
23496;SDS011;11925;48.122;11.560;2022-08-03T03:43:16;3.10;;;1.40;;
23496;SDS011;11925;48.122;11.560;2022-08-03T03:45:45;2.88;;;1.50;;
23496;SDS011;11925;48.122;11.560;2022-08-03T03:48:14;2.63;;;1.27;;
23496;SDS011;11925;48.122;11.560;2022-08-03T03:50:43;2.72;;;1.40;;
23496;SDS011;11925;48.122;11.560;2022-08-03T03:53:13;1.98;;;1.20;;
23496;SDS011;11925;48.122;11.560;2022-08-03T03:55:42;3.15;;;1.30;;
23496;SDS011;11925;48.122;11.560;2022-08-03T03:58:28;3.45;;;1.60;;
23496;SDS011;11925;48.122;11.560;2022-08-03T04:00:57;2.35;;;1.15;;
23496;SDS011;11925;48.122;11.560;2022-08-03T04:03:26;2.50;;;1.40;;
23496;SDS011;11925;48.122;11.560;2022-08-03T04:05:55;2.88;;;1.60;;
23496;SDS011;11925;48.122;11.560;2022-08-03T04:08:43;3.83;;;2.00;;
23496;SDS011;11925;48.122;11.560;2022-08-03T04:11:31;4.75;;;2.22;;
23496;SDS011;11925;48.122;11.560;2022-08-03T04:14:03;2.88;;;2.10;;
23496;SDS011;11925;48.122;11.560;2022-08-03T04:16:34;3.60;;;1.73;;
23496;SDS011;11925;48.122;11.560;2022-08-03T04:19:09;2.75;;;1.60;;
23496;SDS011;11925;48.122;11.560;2022-08-03T04:21:39;3.45;;;2.05;;
23496;SDS011;11925;48.122;11.560;2022-08-03T04:24:10;3.70;;;1.90;;
23496;SDS011;11925;48.122;11.560;2022-08-03T04:26:39;2.60;;;1.40;;
23496;SDS011;11925;48.122;11.560;2022-08-03T04:29:18;4.03;;;1.98;;
23496;SDS011;11925;48.122;11.560;2022-08-03T04:31:50;3.17;;;1.75;;
23496;SDS011;11925;48.122;11.560;2022-08-03T04:34:19;3.50;;;1.75;;
23496;SDS011;11925;48.122;11.560;2022-08-03T04:36:48;3.28;;;1.80;;
23496;SDS011;11925;48.122;11.560;2022-08-03T04:39:21;2.35;;;1.60;;
23496;SDS011;11925;48.122;11.560;2022-08-03T04:41:52;3.28;;;1.40;;
23496;SDS011;11925;48.122;11.560;2022-08-03T04:44:34;2.83;;;1.70;;
23496;SDS011;11925;48.122;11.560;2022-08-03T04:47:03;3.72;;;1.52;;
23496;SDS011;11925;48.122;11.560;2022-08-03T04:49:42;1.63;;;1.27;;
23496;SDS011;11925;48.122;11.560;2022-08-03T04:52:11;3.95;;;1.58;;
23496;SDS011;11925;48.122;11.560;2022-08-03T04:54:42;2.42;;;1.40;;
23496;SDS011;11925;48.122;11.560;2022-08-03T04:57:16;2.25;;;1.60;;
23496;SDS011;11925;48.122;11.560;2022-08-03T04:59:49;1.90;;;1.35;;
23496;SDS011;11925;48.122;11.560;2022-08-03T05:02:29;3.15;;;1.40;;
23496;SDS011;11925;48.122;11.560;2022-08-03T05:04:58;3.15;;;1.40;;
23496;SDS011;11925;48.122;11.560;2022-08-03T05:07:27;5.28;;;1.85;;
23496;SDS011;11925;48.122;11.560;2022-08-03T05:10:05;4.10;;;2.13;;
23496;SDS011;11925;48.122;11.560;2022-08-03T05:12:42;4.32;;;2.13;;
23496;SDS011;11925;48.122;11.560;2022-08-03T05:15:11;2.50;;;1.63;;
23496;SDS011;11925;48.122;11.560;2022-08-03T05:17:39;2.25;;;1.40;;
23496;SDS011;11925;48.122;11.560;2022-08-03T05:20:09;2.28;;;1.40;;
23496;SDS011;11925;48.122;11.560;2022-08-03T05:22:38;3.95;;;1.80;;
23496;SDS011;11925;48.122;11.560;2022-08-03T05:25:08;2.13;;;1.38;;
23496;SDS011;11925;48.122;11.560;2022-08-03T05:27:46;2.17;;;1.48;;
23496;SDS011;11925;48.122;11.560;2022-08-03T05:30:15;2.38;;;1.50;;
23496;SDS011;11925;48.122;11.560;2022-08-03T05:32:59;2.33;;;1.60;;
23496;SDS011;11925;48.122;11.560;2022-08-03T05:35:28;2.30;;;1.60;;
23496;SDS011;11925;48.122;11.560;2022-08-03T05:38:17;3.35;;;1.63;;
23496;SDS011;11925;48.122;11.560;2022-08-03T05:40:55;6.22;;;1.75;;
23496;SDS011;11925;48.122;11.560;2022-08-03T05:43:44;3.38;;;1.55;;
23496;SDS011;11925;48.122;11.560;2022-08-03T05:46:13;4.07;;;2.00;;
23496;SDS011;11925;48.122;11.560;2022-08-03T05:48:42;2.47;;;1.40;;
23496;SDS011;11925;48.122;11.560;2022-08-03T05:51:10;2.70;;;1.83;;
23496;SDS011;11925;48.122;11.560;2022-08-03T05:53:39;3.38;;;1.83;;
23496;SDS011;11925;48.122;11.560;2022-08-03T05:56:10;4.55;;;1.90;;
23496;SDS011;11925;48.122;11.560;2022-08-03T05:58:43;3.35;;;1.70;;
23496;SDS011;11925;48.122;11.560;2022-08-03T06:01:12;3.55;;;1.60;;
23496;SDS011;11925;48.122;11.560;2022-08-03T06:03:41;2.75;;;2.08;;
23496;SDS011;11925;48.122;11.560;2022-08-03T06:06:10;4.13;;;2.00;;
23496;SDS011;11925;48.122;11.560;2022-08-03T06:08:38;4.10;;;2.20;;
23496;SDS011;11925;48.122;11.560;2022-08-03T06:11:07;3.30;;;1.52;;
23496;SDS011;11925;48.122;11.560;2022-08-03T06:13:37;3.00;;;1.77;;
23496;SDS011;11925;48.122;11.560;2022-08-03T06:16:06;2.88;;;1.60;;
23496;SDS011;11925;48.122;11.560;2022-08-03T06:18:35;5.55;;;2.05;;
23496;SDS011;11925;48.122;11.560;2022-08-03T06:21:04;2.17;;;1.70;;
23496;SDS011;11925;48.122;11.560;2022-08-03T06:23:42;2.55;;;1.40;;
23496;SDS011;11925;48.122;11.560;2022-08-03T06:26:24;1.83;;;1.50;;
23496;SDS011;11925;48.122;11.560;2022-08-03T06:28:54;3.45;;;1.70;;
23496;SDS011;11925;48.122;11.560;2022-08-03T06:31:24;4.65;;;1.83;;
23496;SDS011;11925;48.122;11.560;2022-08-03T06:33:59;2.30;;;1.60;;
23496;SDS011;11925;48.122;11.560;2022-08-03T06:36:48;3.92;;;2.10;;
23496;SDS011;11925;48.122;11.560;2022-08-03T06:39:18;2.97;;;1.70;;
23496;SDS011;11925;48.122;11.560;2022-08-03T06:41:49;2.38;;;1.73;;
23496;SDS011;11925;48.122;11.560;2022-08-03T06:44:20;2.67;;;1.52;;
23496;SDS011;11925;48.122;11.560;2022-08-03T06:46:49;2.85;;;1.75;;
23496;SDS011;11925;48.122;11.560;2022-08-03T06:49:18;3.53;;;1.77;;
23496;SDS011;11925;48.122;11.560;2022-08-03T06:51:47;3.45;;;1.90;;
23496;SDS011;11925;48.122;11.560;2022-08-03T06:54:32;2.25;;;1.40;;
23496;SDS011;11925;48.122;11.560;2022-08-03T06:57:01;2.67;;;1.67;;
23496;SDS011;11925;48.122;11.560;2022-08-03T06:59:31;2.55;;;1.75;;
23496;SDS011;11925;48.122;11.560;2022-08-03T07:02:20;2.53;;;1.52;;
23496;SDS011;11925;48.122;11.560;2022-08-03T07:04:49;2.60;;;1.50;;
23496;SDS011;11925;48.122;11.560;2022-08-03T07:07:17;2.88;;;1.65;;
23496;SDS011;11925;48.122;11.560;2022-08-03T07:09:46;5.03;;;2.35;;
23496;SDS011;11925;48.122;11.560;2022-08-03T07:12:23;4.05;;;2.10;;
23496;SDS011;11925;48.122;11.560;2022-08-03T07:14:54;4.20;;;2.70;;
23496;SDS011;11925;48.122;11.560;2022-08-03T07:17:27;3.83;;;2.53;;
23496;SDS011;11925;48.122;11.560;2022-08-03T07:19:56;3.60;;;2.33;;
23496;SDS011;11925;48.122;11.560;2022-08-03T07:22:25;5.10;;;2.55;;
23496;SDS011;11925;48.122;11.560;2022-08-03T07:24:54;4.90;;;2.40;;
23496;SDS011;11925;48.122;11.560;2022-08-03T07:27:23;5.55;;;2.63;;
23496;SDS011;11925;48.122;11.560;2022-08-03T07:29:55;4.18;;;3.17;;
23496;SDS011;11925;48.122;11.560;2022-08-03T07:32:24;4.32;;;2.97;;
23496;SDS011;11925;48.122;11.560;2022-08-03T07:34:54;5.28;;;3.03;;
23496;SDS011;11925;48.122;11.560;2022-08-03T07:37:26;4.90;;;3.42;;
23496;SDS011;11925;48.122;11.560;2022-08-03T07:39:55;5.13;;;3.10;;
23496;SDS011;11925;48.122;11.560;2022-08-03T07:42:24;4.78;;;2.65;;
23496;SDS011;11925;48.122;11.560;2022-08-03T07:44:53;3.95;;;2.72;;
23496;SDS011;11925;48.122;11.560;2022-08-03T07:47:24;4.75;;;3.10;;
23496;SDS011;11925;48.122;11.560;2022-08-03T07:50:01;7.43;;;3.00;;
23496;SDS011;11925;48.122;11.560;2022-08-03T07:52:30;7.22;;;2.92;;
23496;SDS011;11925;48.122;11.560;2022-08-03T07:55:19;4.30;;;2.90;;
23496;SDS011;11925;48.122;11.560;2022-08-03T07:57:57;7.30;;;4.22;;
23496;SDS011;11925;48.122;11.560;2022-08-03T08:00:26;7.72;;;4.35;;
23496;SDS011;11925;48.122;11.560;2022-08-03T08:02:56;6.85;;;4.90;;
23496;SDS011;11925;48.122;11.560;2022-08-03T08:05:25;7.28;;;4.65;;
23496;SDS011;11925;48.122;11.560;2022-08-03T08:07:54;7.55;;;4.70;;
23496;SDS011;11925;48.122;11.560;2022-08-03T08:10:23;7.82;;;4.07;;
23496;SDS011;11925;48.122;11.560;2022-08-03T08:12:52;7.55;;;3.85;;
23496;SDS011;11925;48.122;11.560;2022-08-03T08:15:21;6.97;;;3.70;;
23496;SDS011;11925;48.122;11.560;2022-08-03T08:17:50;6.28;;;3.30;;
23496;SDS011;11925;48.122;11.560;2022-08-03T08:20:21;6.95;;;3.08;;
23496;SDS011;11925;48.122;11.560;2022-08-03T08:22:57;5.95;;;3.70;;
23496;SDS011;11925;48.122;11.560;2022-08-03T08:25:27;8.02;;;3.70;;
23496;SDS011;11925;48.122;11.560;2022-08-03T08:27:56;4.55;;;3.20;;
23496;SDS011;11925;48.122;11.560;2022-08-03T08:30:47;5.33;;;2.67;;
23496;SDS011;11925;48.122;11.560;2022-08-03T08:33:16;3.38;;;2.70;;
23496;SDS011;11925;48.122;11.560;2022-08-03T08:35:50;5.97;;;2.50;;
23496;SDS011;11925;48.122;11.560;2022-08-03T08:38:19;3.92;;;2.60;;
23496;SDS011;11925;48.122;11.560;2022-08-03T08:40:48;6.13;;;2.50;;
23496;SDS011;11925;48.122;11.560;2022-08-03T08:43:17;4.15;;;2.22;;
23496;SDS011;11925;48.122;11.560;2022-08-03T08:45:46;4.85;;;2.50;;
23496;SDS011;11925;48.122;11.560;2022-08-03T08:48:17;4.78;;;1.98;;
23496;SDS011;11925;48.122;11.560;2022-08-03T08:50:52;4.20;;;2.20;;
23496;SDS011;11925;48.122;11.560;2022-08-03T08:53:21;7.55;;;2.42;;
23496;SDS011;11925;48.122;11.560;2022-08-03T09:00:53;6.32;;;2.28;;
23496;SDS011;11925;48.122;11.560;2022-08-03T09:03:23;3.15;;;1.88;;
23496;SDS011;11925;48.122;11.560;2022-08-03T09:05:57;3.47;;;1.90;;
23496;SDS011;11925;48.122;11.560;2022-08-03T09:08:26;3.17;;;1.77;;
23496;SDS011;11925;48.122;11.560;2022-08-03T09:10:54;6.65;;;1.90;;
23496;SDS011;11925;48.122;11.560;2022-08-03T09:13:23;4.10;;;1.90;;
23496;SDS011;11925;48.122;11.560;2022-08-03T09:18:35;4.78;;;1.92;;
23496;SDS011;11925;48.122;11.560;2022-08-03T09:21:13;3.28;;;1.88;;
23496;SDS011;11925;48.122;11.560;2022-08-03T09:23:58;3.10;;;1.80;;
23496;SDS011;11925;48.122;11.560;2022-08-03T09:26:30;5.65;;;2.25;;
23496;SDS011;11925;48.122;11.560;2022-08-03T09:29:00;2.75;;;1.50;;
23496;SDS011;11925;48.122;11.560;2022-08-03T09:31:37;3.78;;;1.83;;
23496;SDS011;11925;48.122;11.560;2022-08-03T09:34:09;3.30;;;1.67;;
23496;SDS011;11925;48.122;11.560;2022-08-03T09:36:41;2.80;;;1.70;;
23496;SDS011;11925;48.122;11.560;2022-08-03T09:39:10;3.50;;;1.98;;
23496;SDS011;11925;48.122;11.560;2022-08-03T09:41:40;6.00;;;3.30;;
23496;SDS011;11925;48.122;11.560;2022-08-03T09:44:08;4.07;;;2.97;;
23496;SDS011;11925;48.122;11.560;2022-08-03T09:46:51;6.18;;;3.60;;
23496;SDS011;11925;48.122;11.560;2022-08-03T09:49:20;9.40;;;5.22;;
23496;SDS011;11925;48.122;11.560;2022-08-03T09:51:50;8.88;;;5.93;;
23496;SDS011;11925;48.122;11.560;2022-08-03T09:54:39;8.93;;;6.53;;
23496;SDS011;11925;48.122;11.560;2022-08-03T09:57:08;12.82;;;6.93;;
23496;SDS011;11925;48.122;11.560;2022-08-03T09:59:47;8.68;;;5.90;;
23496;SDS011;11925;48.122;11.560;2022-08-03T10:02:21;6.20;;;5.20;;
23496;SDS011;11925;48.122;11.560;2022-08-03T10:04:51;4.88;;;3.80;;
23496;SDS011;11925;48.122;11.560;2022-08-03T10:07:21;6.82;;;4.05;;
23496;SDS011;11925;48.122;11.560;2022-08-03T10:09:54;8.53;;;3.63;;
23496;SDS011;11925;48.122;11.560;2022-08-03T10:12:43;5.57;;;3.47;;
23496;SDS011;11925;48.122;11.560;2022-08-03T10:15:14;5.35;;;3.60;;
23496;SDS011;11925;48.122;11.560;2022-08-03T10:18:03;5.90;;;3.42;;
23496;SDS011;11925;48.122;11.560;2022-08-03T10:20:32;4.53;;;3.33;;
23496;SDS011;11925;48.122;11.560;2022-08-03T10:23:05;4.45;;;2.80;;
23496;SDS011;11925;48.122;11.560;2022-08-03T10:25:35;3.20;;;2.42;;
23496;SDS011;11925;48.122;11.560;2022-08-03T10:28:06;4.93;;;2.72;;
23496;SDS011;11925;48.122;11.560;2022-08-03T10:30:35;3.72;;;2.50;;
23496;SDS011;11925;48.122;11.560;2022-08-03T10:33:06;3.40;;;2.45;;
23496;SDS011;11925;48.122;11.560;2022-08-03T10:35:57;2.92;;;2.20;;
23496;SDS011;11925;48.122;11.560;2022-08-03T10:38:30;3.33;;;2.38;;
23496;SDS011;11925;48.122;11.560;2022-08-03T10:41:00;2.50;;;2.00;;
23496;SDS011;11925;48.122;11.560;2022-08-03T10:43:31;3.70;;;2.30;;
23496;SDS011;11925;48.122;11.560;2022-08-03T10:46:01;3.42;;;2.10;;
23496;SDS011;11925;48.122;11.560;2022-08-03T10:48:30;2.85;;;2.03;;
23496;SDS011;11925;48.122;11.560;2022-08-03T10:51:00;2.65;;;2.00;;
23496;SDS011;11925;48.122;11.560;2022-08-03T10:53:34;3.22;;;1.90;;
23496;SDS011;11925;48.122;11.560;2022-08-03T10:56:04;1.67;;;1.50;;
23496;SDS011;11925;48.122;11.560;2022-08-03T10:59:11;3.63;;;1.90;;
23496;SDS011;11925;48.122;11.560;2022-08-03T11:01:54;1.85;;;1.42;;
23496;SDS011;11925;48.122;11.560;2022-08-03T11:04:25;2.08;;;1.38;;
23496;SDS011;11925;48.122;11.560;2022-08-03T11:09:44;3.50;;;1.70;;
23496;SDS011;11925;48.122;11.560;2022-08-03T11:12:21;2.25;;;1.38;;
23496;SDS011;11925;48.122;11.560;2022-08-03T11:14:58;2.58;;;1.52;;
23496;SDS011;11925;48.122;11.560;2022-08-03T11:17:27;1.67;;;1.30;;
23496;SDS011;11925;48.122;11.560;2022-08-03T11:19:56;3.05;;;1.80;;
23496;SDS011;11925;48.122;11.560;2022-08-03T11:22:25;3.63;;;1.65;;
23496;SDS011;11925;48.122;11.560;2022-08-03T11:25:15;2.30;;;1.55;;
23496;SDS011;11925;48.122;11.560;2022-08-03T11:30:52;2.47;;;1.40;;
23496;SDS011;11925;48.122;11.560;2022-08-03T11:33:30;1.92;;;1.50;;
23496;SDS011;11925;48.122;11.560;2022-08-03T11:35:59;2.47;;;1.30;;
23496;SDS011;11925;48.122;11.560;2022-08-03T11:38:28;2.20;;;1.50;;
23496;SDS011;11925;48.122;11.560;2022-08-03T11:40:58;2.20;;;1.50;;
23496;SDS011;11925;48.122;11.560;2022-08-03T11:46:17;2.47;;;1.50;;
23496;SDS011;11925;48.122;11.560;2022-08-03T11:48:55;2.90;;;1.40;;
23496;SDS011;11925;48.122;11.560;2022-08-03T11:51:36;2.30;;;1.23;;
23496;SDS011;11925;48.122;11.560;2022-08-03T11:54:06;2.20;;;1.42;;
23496;SDS011;11925;48.122;11.560;2022-08-03T11:56:45;3.20;;;1.75;;
23496;SDS011;11925;48.122;11.560;2022-08-03T11:59:14;3.15;;;1.52;;
23496;SDS011;11925;48.122;11.560;2022-08-03T12:01:48;2.05;;;1.70;;
23496;SDS011;11925;48.122;11.560;2022-08-03T12:04:16;2.67;;;1.52;;
23496;SDS011;11925;48.122;11.560;2022-08-03T12:06:58;3.15;;;1.92;;
23496;SDS011;11925;48.122;11.560;2022-08-03T12:09:26;2.97;;;1.48;;
23496;SDS011;11925;48.122;11.560;2022-08-03T12:11:57;2.13;;;1.40;;
23496;SDS011;11925;48.122;11.560;2022-08-03T12:14:27;2.03;;;1.42;;
23496;SDS011;11925;48.122;11.560;2022-08-03T12:17:16;2.25;;;1.60;;
23496;SDS011;11925;48.122;11.560;2022-08-03T12:19:45;2.50;;;1.20;;
23496;SDS011;11925;48.122;11.560;2022-08-03T12:22:14;1.77;;;1.42;;
23496;SDS011;11925;48.122;11.560;2022-08-03T12:24:43;2.88;;;1.42;;
23496;SDS011;11925;48.122;11.560;2022-08-03T12:27:23;1.88;;;1.40;;
23496;SDS011;11925;48.122;11.560;2022-08-03T12:29:53;1.83;;;1.23;;
23496;SDS011;11925;48.122;11.560;2022-08-03T12:32:25;2.95;;;1.25;;
23496;SDS011;11925;48.122;11.560;2022-08-03T12:34:54;2.20;;;1.38;;
23496;SDS011;11925;48.122;11.560;2022-08-03T12:37:26;2.13;;;1.33;;
23496;SDS011;11925;48.122;11.560;2022-08-03T12:39:57;2.15;;;1.23;;
23496;SDS011;11925;48.122;11.560;2022-08-03T12:42:37;1.98;;;1.30;;
23496;SDS011;11925;48.122;11.560;2022-08-03T12:45:18;2.77;;;1.40;;
23496;SDS011;11925;48.122;11.560;2022-08-03T12:47:48;1.95;;;1.13;;
23496;SDS011;11925;48.122;11.560;2022-08-03T12:50:27;1.92;;;1.33;;
23496;SDS011;11925;48.122;11.560;2022-08-03T12:52:57;1.70;;;1.10;;
23496;SDS011;11925;48.122;11.560;2022-08-03T12:55:26;2.72;;;1.40;;
23496;SDS011;11925;48.122;11.560;2022-08-03T12:58:31;105.82;;;70.30;;
23496;SDS011;11925;48.122;11.560;2022-08-03T13:01:01;154.20;;;99.28;;
23496;SDS011;11925;48.122;11.560;2022-08-03T13:03:39;172.77;;;105.47;;
23496;SDS011;11925;48.122;11.560;2022-08-03T13:06:15;222.80;;;137.93;;
23496;SDS011;11925;48.122;11.560;2022-08-03T13:08:45;139.43;;;86.47;;
23496;SDS011;11925;48.122;11.560;2022-08-03T13:11:18;100.47;;;58.08;;
23496;SDS011;11925;48.122;11.560;2022-08-03T13:13:49;82.78;;;47.35;;
23496;SDS011;11925;48.122;11.560;2022-08-03T13:16:17;33.92;;;19.95;;
23496;SDS011;11925;48.122;11.560;2022-08-03T13:18:47;49.35;;;26.52;;
23496;SDS011;11925;48.122;11.560;2022-08-03T13:21:17;72.45;;;41.88;;
23496;SDS011;11925;48.122;11.560;2022-08-03T13:23:46;25.27;;;14.50;;
23496;SDS011;11925;48.122;11.560;2022-08-03T13:26:15;50.20;;;26.70;;
23496;SDS011;11925;48.122;11.560;2022-08-03T13:28:44;20.70;;;12.15;;
23496;SDS011;11925;48.122;11.560;2022-08-03T13:31:15;24.75;;;15.35;;
23496;SDS011;11925;48.122;11.560;2022-08-03T13:33:45;32.03;;;18.73;;
23496;SDS011;11925;48.122;11.560;2022-08-03T13:36:13;28.27;;;16.70;;
23496;SDS011;11925;48.122;11.560;2022-08-03T13:38:42;26.08;;;14.70;;
23496;SDS011;11925;48.122;11.560;2022-08-03T13:41:12;11.52;;;6.72;;
23496;SDS011;11925;48.122;11.560;2022-08-03T13:43:42;14.38;;;7.55;;
23496;SDS011;11925;48.122;11.560;2022-08-03T13:46:11;14.18;;;7.72;;
23496;SDS011;11925;48.122;11.560;2022-08-03T13:48:41;10.27;;;6.70;;
23496;SDS011;11925;48.122;11.560;2022-08-03T13:51:10;7.13;;;4.25;;
23496;SDS011;11925;48.122;11.560;2022-08-03T13:53:48;10.43;;;5.57;;
23496;SDS011;11925;48.122;11.560;2022-08-03T13:56:17;8.48;;;5.13;;
23496;SDS011;11925;48.122;11.560;2022-08-03T13:58:46;7.32;;;4.03;;
23496;SDS011;11925;48.122;11.560;2022-08-03T14:01:14;6.22;;;3.25;;
23496;SDS011;11925;48.122;11.560;2022-08-03T14:04:04;6.40;;;3.72;;
23496;SDS011;11925;48.122;11.560;2022-08-03T14:06:47;6.10;;;3.30;;
23496;SDS011;11925;48.122;11.560;2022-08-03T14:09:16;5.75;;;3.42;;
23496;SDS011;11925;48.122;11.560;2022-08-03T14:11:46;3.55;;;2.30;;
23496;SDS011;11925;48.122;11.560;2022-08-03T14:14:34;3.75;;;2.05;;
23496;SDS011;11925;48.122;11.560;2022-08-03T14:17:03;2.88;;;1.83;;
23496;SDS011;11925;48.122;11.560;2022-08-03T14:19:34;3.03;;;1.90;;
23496;SDS011;11925;48.122;11.560;2022-08-03T14:22:19;3.15;;;2.00;;
23496;SDS011;11925;48.122;11.560;2022-08-03T14:24:47;3.40;;;2.00;;
23496;SDS011;11925;48.122;11.560;2022-08-03T14:27:16;3.60;;;1.52;;
23496;SDS011;11925;48.122;11.560;2022-08-03T14:29:45;2.20;;;1.60;;
23496;SDS011;11925;48.122;11.560;2022-08-03T14:32:14;1.88;;;1.40;;
23496;SDS011;11925;48.122;11.560;2022-08-03T14:34:44;3.58;;;1.70;;
23496;SDS011;11925;48.122;11.560;2022-08-03T14:37:13;2.00;;;1.67;;
23496;SDS011;11925;48.122;11.560;2022-08-03T14:39:42;2.50;;;1.50;;
23496;SDS011;11925;48.122;11.560;2022-08-03T14:42:27;2.45;;;1.20;;
23496;SDS011;11925;48.122;11.560;2022-08-03T14:44:56;2.20;;;1.40;;
23496;SDS011;11925;48.122;11.560;2022-08-03T14:47:32;2.97;;;1.60;;
23496;SDS011;11925;48.122;11.560;2022-08-03T14:50:22;2.85;;;1.40;;
23496;SDS011;11925;48.122;11.560;2022-08-03T14:53:04;2.05;;;1.38;;
23496;SDS011;11925;48.122;11.560;2022-08-03T14:55:33;2.65;;;1.38;;
23496;SDS011;11925;48.122;11.560;2022-08-03T14:58:15;2.40;;;1.30;;
23496;SDS011;11925;48.122;11.560;2022-08-03T15:00:47;2.50;;;1.48;;
23496;SDS011;11925;48.122;11.560;2022-08-03T15:03:16;2.67;;;1.67;;
23496;SDS011;11925;48.122;11.560;2022-08-03T15:05:47;3.22;;;1.63;;
23496;SDS011;11925;48.122;11.560;2022-08-03T15:08:16;2.00;;;1.50;;
23496;SDS011;11925;48.122;11.560;2022-08-03T15:10:44;1.70;;;1.30;;
23496;SDS011;11925;48.122;11.560;2022-08-03T15:13:14;2.03;;;1.48;;
23496;SDS011;11925;48.122;11.560;2022-08-03T15:15:43;2.15;;;1.45;;
23496;SDS011;11925;48.122;11.560;2022-08-03T15:18:12;1.90;;;1.40;;
23496;SDS011;11925;48.122;11.560;2022-08-03T15:20:41;2.17;;;1.50;;
23496;SDS011;11925;48.122;11.560;2022-08-03T15:23:14;2.10;;;1.70;;